createdAt,value
2018-02-11T00:00:45.988Z,39.1
2018-02-11T00:01:46.040Z,39.22
2018-02-11T00:02:46.032Z,39.29
2018-02-11T00:03:46.056Z,39.19
2018-02-11T00:04:46.038Z,39.16
2018-02-11T00:05:46.043Z,39.19
2018-02-11T00:06:46.055Z,39.22
2018-02-11T00:07:46.038Z,39.26
2018-02-11T00:08:46.039Z,39.33
2018-02-11T00:09:46.033Z,39.29
2018-02-11T00:10:46.040Z,39.23
2018-02-11T00:11:46.057Z,39.32
2018-02-11T00:12:46.027Z,39.37
2018-02-11T00:13:46.053Z,39.28
2018-02-11T00:14:46.043Z,39.3
2018-02-11T00:15:46.034Z,39.41
2018-02-11T00:16:46.038Z,39.28
2018-02-11T00:17:46.012Z,39.33
2018-02-11T00:18:46.071Z,39.37
2018-02-11T00:19:46.038Z,39.26
2018-02-11T00:20:46.045Z,39.35
2018-02-11T00:21:46.040Z,39.34
2018-02-11T00:22:46.136Z,39.25
2018-02-11T00:23:46.054Z,39.48
2018-02-11T00:24:46.042Z,39.3
2018-02-11T00:25:46.030Z,39.29
2018-02-11T00:26:46.031Z,39.26
2018-02-11T00:27:46.027Z,39.31
2018-02-11T00:28:46.053Z,39.25
2018-02-11T00:29:46.056Z,39.29
2018-02-11T00:30:46.111Z,39.3
2018-02-11T00:31:46.026Z,39.18
2018-02-11T00:32:46.013Z,39.29
2018-02-11T00:33:46.310Z,39.26
2018-02-11T00:34:46.028Z,39.29
2018-02-11T00:35:46.026Z,39.29
2018-02-11T00:36:46.036Z,39.22
2018-02-11T00:37:46.034Z,39.27
2018-02-11T00:38:46.136Z,39.24
2018-02-11T00:39:46.038Z,39.25
2018-02-11T00:40:46.025Z,39.31
2018-02-11T00:41:46.029Z,39.21
2018-02-11T00:42:46.031Z,39.18
2018-02-11T00:43:46.058Z,39.12
2018-02-11T00:44:46.034Z,39.19
2018-02-11T00:45:46.028Z,39.35
2018-02-11T00:46:46.012Z,39.21
2018-02-11T00:47:46.029Z,39.2
2018-02-11T00:48:46.057Z,39.43
2018-02-11T00:49:46.035Z,39.26
2018-02-11T00:50:46.024Z,39.31
2018-02-11T00:51:46.053Z,39.33
2018-02-11T00:52:46.027Z,39.23
2018-02-11T00:53:46.050Z,39.24
2018-02-11T00:54:46.007Z,39.26
2018-02-11T00:55:46.038Z,39.18
2018-02-11T00:56:46.013Z,39.42
2018-02-11T00:57:46.026Z,39.29
2018-02-11T00:58:46.301Z,39.26
2018-02-11T00:59:46.021Z,39.18
2018-02-11T01:00:45.994Z,39.27
2018-02-11T01:01:46.020Z,39.29
2018-02-11T01:02:46.032Z,39.17
2018-02-11T01:03:46.042Z,39.2
2018-02-11T01:04:46.018Z,39.31
2018-02-11T01:05:46.022Z,39.21
2018-02-11T01:06:46.032Z,39.39
2018-02-11T01:07:46.026Z,39.28
2018-02-11T01:08:46.041Z,39.3
2018-02-11T01:09:46.032Z,39.25
2018-02-11T01:10:46.022Z,39.3
2018-02-11T01:11:46.019Z,39.36
2018-02-11T01:12:46.018Z,39.47
2018-02-11T01:13:46.054Z,39.35
2018-02-11T01:14:45.991Z,39.28
2018-02-11T01:15:45.985Z,39.22
2018-02-11T01:16:46.002Z,39.28
2018-02-11T01:17:46.021Z,39.3
2018-02-11T01:18:46.284Z,39.32
2018-02-11T01:19:46.118Z,39.26
2018-02-11T01:20:46.114Z,39.29
2018-02-11T01:21:46.012Z,39.3
2018-02-11T01:22:46.004Z,39.22
2018-02-11T01:23:46.046Z,39.32
2018-02-11T01:24:46.015Z,39.49
2018-02-11T01:25:46.012Z,39.26
2018-02-11T01:26:46.025Z,39.44
2018-02-11T01:27:46.036Z,39.33
2018-02-11T01:28:46.016Z,39.31
2018-02-11T01:29:46.009Z,39.22
2018-02-11T01:31:46.542Z,39.28
2018-02-11T01:32:46.062Z,39.3
2018-02-11T01:33:46.084Z,39.35
2018-02-11T01:34:46.018Z,39.32
2018-02-11T01:35:46.027Z,39.25
2018-02-11T01:36:46.013Z,39.39
2018-02-11T01:37:46.025Z,39.29
2018-02-11T01:38:46.015Z,39.33
2018-02-11T01:39:46.016Z,39.3
2018-02-11T01:40:46.023Z,39.27
2018-02-11T01:41:46.016Z,39.3
2018-02-11T01:42:46.018Z,39.29
2018-02-11T01:43:46.081Z,39.31
2018-02-11T01:44:46.006Z,39.33
2018-02-11T01:45:46.007Z,39.3
2018-02-11T01:46:46.010Z,39.39
2018-02-11T01:47:46.016Z,39.29
2018-02-11T01:48:46.059Z,39.35
2018-02-11T01:49:45.997Z,39.4
2018-02-11T01:50:46.021Z,39.26
2018-02-11T01:51:46.021Z,39.42
2018-02-11T01:52:46.006Z,39.39
2018-02-11T01:53:46.018Z,39.36
2018-02-11T01:54:46.005Z,39.26
2018-02-11T01:55:46.017Z,39.37
2018-02-11T01:56:45.992Z,39.16
2018-02-11T01:57:46.004Z,39.28
2018-02-11T01:58:46.013Z,39.18
2018-02-11T01:59:46.016Z,39.37
2018-02-11T02:00:46.017Z,39.32
2018-02-11T02:01:46.015Z,39.33
2018-02-11T02:02:46.015Z,39.24
2018-02-11T02:03:46.033Z,39.27
2018-02-11T02:04:46.012Z,39.21
2018-02-11T02:05:45.998Z,39.27
2018-02-11T02:06:45.987Z,39.29
2018-02-11T02:07:46.005Z,39.39
2018-02-11T02:08:46.023Z,39.28
2018-02-11T02:09:45.995Z,39.33
2018-02-11T02:10:46.000Z,39.33
2018-02-11T02:11:46.000Z,39.24
2018-02-11T02:12:46.020Z,39.23
2018-02-11T02:13:46.296Z,39.32
2018-02-11T02:14:46.018Z,39.34
2018-02-11T02:15:46.025Z,39.29
2018-02-11T02:16:45.998Z,39.25
2018-02-11T02:17:46.016Z,39.36
2018-02-11T02:18:46.014Z,39.22
2018-02-11T02:19:46.001Z,39.32
2018-02-11T02:20:46.050Z,39.29
2018-02-11T02:21:46.007Z,39.29
2018-02-11T02:22:46.008Z,39.39
2018-02-11T02:23:45.993Z,39.35
2018-02-11T02:24:46.008Z,39.24
2018-02-11T02:25:46.001Z,39.33
2018-02-11T02:26:45.996Z,39.27
2018-02-11T02:27:45.993Z,39.38
2018-02-11T02:28:46.010Z,39.39
2018-02-11T02:29:45.999Z,39.36
2018-02-11T02:30:45.996Z,39.39
2018-02-11T02:31:46.009Z,39.4
2018-02-11T02:32:46.004Z,39.34
2018-02-11T02:33:45.994Z,39.34
2018-02-11T02:34:46.067Z,39.38
2018-02-11T02:35:45.990Z,39.33
2018-02-11T02:36:45.997Z,39.38
2018-02-11T02:37:45.970Z,39.42
2018-02-11T02:38:46.023Z,39.42
2018-02-11T02:39:46.511Z,39.39
2018-02-11T02:40:46.001Z,39.33
2018-02-11T02:41:45.988Z,39.36
2018-02-11T02:42:46.010Z,39.35
2018-02-11T02:43:46.006Z,39.35
2018-02-11T02:44:46.004Z,39.34
2018-02-11T02:45:46.015Z,39.37
2018-02-11T02:46:46.043Z,39.38
2018-02-11T02:47:46.013Z,39.32
2018-02-11T02:48:46.033Z,39.36
2018-02-11T02:49:46.013Z,39.38
2018-02-11T02:50:46.037Z,39.34
2018-02-11T02:51:46.036Z,39.35
2018-02-11T02:52:45.991Z,39.37
2018-02-11T02:53:46.054Z,39.33
2018-02-11T02:54:46.014Z,39.34
2018-02-11T02:55:46.005Z,39.35
2018-02-11T02:56:46.009Z,39.31
2018-02-11T02:57:46.022Z,39.32
2018-02-11T02:58:46.038Z,39.29
2018-02-11T02:59:46.052Z,39.25
2018-02-11T03:00:46.011Z,39.35
2018-02-11T03:01:46.024Z,39.37
2018-02-11T03:02:46.022Z,39.21
2018-02-11T03:03:46.040Z,39.33
2018-02-11T03:04:46.015Z,39.36
2018-02-11T03:05:46.003Z,39.31
2018-02-11T03:06:46.003Z,39.25
2018-02-11T03:07:46.022Z,39.38
2018-02-11T03:08:46.027Z,39.35
2018-02-11T03:09:46.001Z,39.36
2018-02-11T03:10:46.011Z,39.4
2018-02-11T03:11:46.008Z,39.26
2018-02-11T03:12:45.993Z,39.41
2018-02-11T03:13:46.161Z,39.39
2018-02-11T03:14:46.009Z,39.31
2018-02-11T03:15:45.988Z,39.32
2018-02-11T03:16:46.019Z,39.33
2018-02-11T03:17:46.001Z,39.32
2018-02-11T03:18:46.019Z,39.29
2018-02-11T03:19:46.009Z,39.35
2018-02-11T03:20:46.093Z,39.4
2018-02-11T03:21:46.091Z,39.33
2018-02-11T03:22:46.001Z,39.39
2018-02-11T03:23:46.375Z,39.42
2018-02-11T03:24:46.022Z,39.38
2018-02-11T03:25:46.009Z,39.35
2018-02-11T03:26:46.002Z,39.33
2018-02-11T03:27:45.994Z,39.37
2018-02-11T03:28:46.051Z,39.33
2018-02-11T03:29:46.033Z,39.36
2018-02-11T03:30:45.999Z,39.33
2018-02-11T03:31:46.002Z,39.32
2018-02-11T03:32:46.020Z,39.28
2018-02-11T03:33:46.042Z,39.33
2018-02-11T03:34:46.000Z,39.43
2018-02-11T03:35:45.992Z,39.37
2018-02-11T03:36:46.008Z,39.33
2018-02-11T03:37:46.024Z,39.33
2018-02-11T03:38:46.018Z,39.32
2018-02-11T03:39:46.006Z,39.4
2018-02-11T03:40:45.997Z,39.31
2018-02-11T03:41:45.993Z,39.37
2018-02-11T03:42:46.056Z,39.38
2018-02-11T03:43:45.992Z,39.38
2018-02-11T03:44:45.997Z,39.42
2018-02-11T03:45:45.996Z,39.39
2018-02-11T03:46:45.985Z,39.32
2018-02-11T03:47:45.991Z,39.36
2018-02-11T03:48:45.871Z,39.32
2018-02-11T03:49:46.008Z,39.29
2018-02-11T03:50:46.025Z,39.35
2018-02-11T03:51:45.998Z,39.4
2018-02-11T03:52:45.995Z,39.28
2018-02-11T03:53:45.993Z,39.32
2018-02-11T03:54:45.986Z,39.35
2018-02-11T03:55:45.993Z,39.32
2018-02-11T03:56:45.993Z,39.32
2018-02-11T03:57:46.005Z,39.36
2018-02-11T03:58:45.986Z,39.32
2018-02-11T03:59:45.994Z,39.34
2018-02-11T04:00:45.995Z,39.29
2018-02-11T04:01:45.985Z,39.38
2018-02-11T04:02:45.989Z,39.27
2018-02-11T04:03:45.986Z,39.38
2018-02-11T04:04:45.993Z,39.3
2018-02-11T04:05:45.976Z,39.28
2018-02-11T04:06:45.987Z,39.35
2018-02-11T04:07:45.980Z,39.3
2018-02-11T04:08:45.986Z,39.32
2018-02-11T04:09:46.004Z,39.32
2018-02-11T04:10:45.989Z,39.31
2018-02-11T04:11:45.989Z,39.33
2018-02-11T04:12:45.978Z,39.36
2018-02-11T04:13:45.985Z,39.26
2018-02-11T04:14:45.978Z,39.3
2018-02-11T04:15:45.976Z,39.36
2018-02-11T04:16:45.982Z,39.39
2018-02-11T04:17:45.976Z,39.36
2018-02-11T04:19:46.527Z,39.34
2018-02-11T04:20:45.958Z,39.33
2018-02-11T04:21:45.991Z,39.34
2018-02-11T04:22:45.996Z,39.42
2018-02-11T04:23:45.965Z,39.43
2018-02-11T04:24:45.999Z,39.32
2018-02-11T04:25:45.982Z,39.29
2018-02-11T04:26:46.007Z,39.36
2018-02-11T04:27:46.021Z,39.37
2018-02-11T04:28:45.998Z,39.22
2018-02-11T04:29:46.021Z,39.36
2018-02-11T04:30:46.008Z,39.34
2018-02-11T04:31:45.951Z,39.35
2018-02-11T04:32:46.042Z,39.38
2018-02-11T04:33:46.029Z,39.32
2018-02-11T04:34:46.022Z,39.33
2018-02-11T04:35:46.017Z,39.29
2018-02-11T04:36:45.972Z,39.4
2018-02-11T04:37:46.014Z,39.39
2018-02-11T04:38:46.023Z,39.37
2018-02-11T04:39:46.021Z,39.38
2018-02-11T04:40:45.993Z,39.38
2018-02-11T04:41:46.012Z,39.41
2018-02-11T04:42:45.972Z,39.46
2018-02-11T04:43:46.022Z,39.29
2018-02-11T04:44:45.970Z,39.47
2018-02-11T04:45:46.002Z,39.51
2018-02-11T04:46:46.010Z,39.36
2018-02-11T04:47:46.017Z,39.35
2018-02-11T04:48:46.021Z,39.36
2018-02-11T04:49:45.991Z,39.35
2018-02-11T04:50:45.985Z,39.43
2018-02-11T04:51:46.024Z,39.27
2018-02-11T04:52:45.988Z,39.37
2018-02-11T04:53:46.011Z,39.42
2018-02-11T04:54:45.980Z,39.36
2018-02-11T04:55:46.006Z,39.37
2018-02-11T04:56:46.013Z,39.31
2018-02-11T04:57:45.986Z,39.51
2018-02-11T04:58:46.012Z,39.42
2018-02-11T04:59:45.952Z,39.41
2018-02-11T05:00:45.966Z,39.54
2018-02-11T05:01:45.980Z,39.42
2018-02-11T05:02:45.969Z,39.24
2018-02-11T05:03:46.020Z,39.27
2018-02-11T05:04:45.994Z,39.3
2018-02-11T05:05:45.981Z,39.25
2018-02-11T05:06:45.946Z,39.42
2018-02-11T05:07:45.979Z,39.25
2018-02-11T05:08:46.011Z,39.24
2018-02-11T05:09:45.981Z,39.05
2018-02-11T05:10:46.008Z,39.25
2018-02-11T05:11:46.007Z,39.17
2018-02-11T05:12:45.975Z,39.19
2018-02-11T05:13:46.045Z,39.24
2018-02-11T05:14:46.007Z,39.33
2018-02-11T05:15:45.999Z,39.46
2018-02-11T05:16:46.002Z,39.22
2018-02-11T05:17:46.002Z,39.26
2018-02-11T05:18:46.005Z,39.19
2018-02-11T05:19:45.996Z,39.27
2018-02-11T05:20:46.017Z,39.19
2018-02-11T05:21:46.054Z,39.21
2018-02-11T05:22:45.998Z,39.26
2018-02-11T05:23:46.014Z,39.25
2018-02-11T05:24:46.002Z,39.15
2018-02-11T05:25:46.007Z,39.12
2018-02-11T05:26:45.979Z,39.18
2018-02-11T05:27:45.989Z,39.21
2018-02-11T05:28:46.007Z,39.29
2018-02-11T05:29:46.002Z,39.19
2018-02-11T05:30:45.971Z,39.03
2018-02-11T05:31:45.978Z,39.14
2018-02-11T05:32:46.001Z,39.07
2018-02-11T05:33:46.006Z,39.2
2018-02-11T05:34:45.999Z,39.07
2018-02-11T05:35:45.970Z,39.04
2018-02-11T05:36:45.975Z,39.06
2018-02-11T05:37:46.456Z,39.11
2018-02-11T05:38:45.980Z,39.07
2018-02-11T05:39:45.942Z,39.13
2018-02-11T05:40:45.953Z,39.07
2018-02-11T05:41:45.937Z,39.11
2018-02-11T05:42:45.969Z,39.04
2018-02-11T05:43:45.991Z,39.05
2018-02-11T05:44:45.967Z,39.08
2018-02-11T05:45:45.993Z,39.08
2018-02-11T05:46:45.990Z,39.09
2018-02-11T05:47:45.978Z,39.1
2018-02-11T05:48:46.024Z,39.11
2018-02-11T05:49:45.987Z,39.13
2018-02-11T05:50:45.979Z,39.05
2018-02-11T05:51:45.987Z,39.12
2018-02-11T05:52:45.982Z,39.11
2018-02-11T05:53:45.931Z,39.06
2018-02-11T05:54:45.945Z,39.06
2018-02-11T05:55:45.936Z,39.07
2018-02-11T05:56:45.961Z,39.06
2018-02-11T05:57:45.937Z,39.1
2018-02-11T05:58:45.944Z,39.1
2018-02-11T05:59:45.957Z,39.17
2018-02-11T06:00:45.925Z,38.98
2018-02-11T06:01:45.920Z,39.12
2018-02-11T06:02:45.915Z,39.12
2018-02-11T06:03:45.924Z,39.1
2018-02-11T06:04:45.946Z,39.11
2018-02-11T06:05:45.930Z,39.07
2018-02-11T06:06:45.927Z,39.01
2018-02-11T06:07:45.919Z,39.04
2018-02-11T06:08:45.940Z,39.1
2018-02-11T06:09:45.939Z,39.07
2018-02-11T06:10:45.925Z,39.13
2018-02-11T06:11:45.913Z,39.05
2018-02-11T06:12:45.914Z,39.15
2018-02-11T06:13:45.918Z,39.07
2018-02-11T06:14:45.940Z,39.01
2018-02-11T06:15:45.929Z,39.07
2018-02-11T06:16:45.910Z,39.05
2018-02-11T06:17:45.930Z,39.05
2018-02-11T06:18:45.915Z,39.05
2018-02-11T06:19:45.934Z,39.06
2018-02-11T06:20:45.919Z,39
2018-02-11T06:21:45.914Z,39.06
2018-02-11T06:22:45.907Z,39.03
2018-02-11T06:23:45.905Z,39.04
2018-02-11T06:24:45.920Z,39.02
2018-02-11T06:25:45.955Z,39.04
2018-02-11T06:26:45.924Z,38.99
2018-02-11T06:27:45.965Z,39.11
2018-02-11T06:28:45.929Z,39.03
2018-02-11T06:29:45.939Z,39.01
2018-02-11T06:30:45.999Z,38.98
2018-02-11T06:31:45.913Z,38.99
2018-02-11T06:32:45.909Z,39.04
2018-02-11T06:33:45.909Z,38.97
2018-02-11T06:34:45.923Z,39.03
2018-02-11T06:35:45.934Z,38.97
2018-02-11T06:36:45.918Z,38.97
2018-02-11T06:37:45.920Z,39.03
2018-02-11T06:38:45.909Z,39
2018-02-11T06:39:45.926Z,39.01
2018-02-11T06:40:45.931Z,38.97
2018-02-11T06:41:45.900Z,38.99
2018-02-11T06:42:45.908Z,38.98
2018-02-11T06:43:45.903Z,38.93
2018-02-11T06:44:45.908Z,38.89
2018-02-11T06:45:45.923Z,38.93
2018-02-11T06:46:45.909Z,39
2018-02-11T06:47:45.897Z,38.95
2018-02-11T06:48:45.903Z,39.03
2018-02-11T06:49:45.899Z,38.99
2018-02-11T06:50:46.183Z,38.95
2018-02-11T06:51:45.906Z,38.94
2018-02-11T06:52:45.906Z,38.87
2018-02-11T06:53:45.921Z,38.96
2018-02-11T06:54:45.921Z,38.95
2018-02-11T06:55:45.921Z,38.93
2018-02-11T06:56:45.910Z,38.93
2018-02-11T06:57:45.929Z,38.9
2018-02-11T06:58:45.931Z,38.85
2018-02-11T06:59:46.011Z,38.94
2018-02-11T07:00:45.929Z,38.95
2018-02-11T07:01:45.906Z,38.88
2018-02-11T07:02:45.892Z,38.96
2018-02-11T07:03:45.894Z,38.96
2018-02-11T07:04:45.895Z,38.84
2018-02-11T07:05:45.910Z,38.88
2018-02-11T07:06:46.167Z,38.83
2018-02-11T07:07:46.025Z,38.83
2018-02-11T07:08:45.896Z,38.98
2018-02-11T07:09:45.896Z,38.9
2018-02-11T07:10:45.922Z,38.86
2018-02-11T07:11:45.937Z,38.86
2018-02-11T07:12:45.913Z,38.9
2018-02-11T07:13:45.897Z,38.87
2018-02-11T07:14:45.907Z,38.88
2018-02-11T07:15:45.991Z,38.89
2018-02-11T07:16:45.900Z,38.86
2018-02-11T07:17:45.974Z,38.83
2018-02-11T07:18:45.907Z,38.86
2018-02-11T07:19:45.892Z,38.84
2018-02-11T07:20:45.903Z,38.81
2018-02-11T07:21:45.981Z,38.89
2018-02-11T07:22:46.015Z,38.82
2018-02-11T07:23:45.996Z,38.83
2018-02-11T07:24:48.082Z,38.82
2018-02-11T07:25:45.893Z,38.82
2018-02-11T07:26:45.886Z,38.83
2018-02-11T07:27:45.896Z,38.79
2018-02-11T07:28:45.910Z,38.71
2018-02-11T07:29:45.895Z,38.73
2018-02-11T07:30:45.907Z,38.65
2018-02-11T07:31:45.954Z,38.68
2018-02-11T07:32:45.890Z,38.68
2018-02-11T07:33:45.959Z,38.61
2018-02-11T07:34:45.888Z,38.7
2018-02-11T07:35:45.733Z,38.67
2018-02-11T07:36:45.912Z,38.66
2018-02-11T07:37:45.908Z,38.68
2018-02-11T07:38:45.890Z,38.66
2018-02-11T07:39:45.998Z,38.61
2018-02-11T07:40:45.890Z,38.66
2018-02-11T07:41:46.308Z,38.62
2018-02-11T07:42:45.920Z,38.69
2018-02-11T07:43:45.884Z,38.58
2018-02-11T07:44:45.910Z,38.66
2018-02-11T07:45:45.899Z,38.68
2018-02-11T07:46:45.890Z,38.65
2018-02-11T07:47:45.962Z,38.64
2018-02-11T07:48:45.895Z,38.64
2018-02-11T07:49:45.892Z,38.63
2018-02-11T07:50:45.913Z,38.49
2018-02-11T07:51:45.907Z,38.64
2018-02-11T07:52:45.882Z,38.58
2018-02-11T07:53:45.907Z,38.63
2018-02-11T07:54:45.878Z,38.6
2018-02-11T07:55:45.894Z,38.63
2018-02-11T07:56:45.897Z,38.58
2018-02-11T07:57:45.885Z,38.61
2018-02-11T07:58:45.885Z,38.58
2018-02-11T07:59:45.900Z,38.59
2018-02-11T08:00:45.918Z,38.54
2018-02-11T08:01:45.889Z,38.56
2018-02-11T08:02:45.889Z,38.55
2018-02-11T08:03:45.887Z,38.53
2018-02-11T08:04:45.900Z,38.56
2018-02-11T08:05:45.908Z,38.57
2018-02-11T08:06:45.883Z,38.58
2018-02-11T08:07:45.894Z,38.56
2018-02-11T08:08:45.884Z,38.5
2018-02-11T08:09:45.884Z,38.55
2018-02-11T08:10:45.887Z,38.58
2018-02-11T08:11:45.884Z,38.54
2018-02-11T08:12:45.880Z,38.52
2018-02-11T08:13:45.883Z,38.52
2018-02-11T08:14:45.871Z,38.5
2018-02-11T08:15:45.912Z,38.51
2018-02-11T08:16:45.889Z,38.47
2018-02-11T08:17:45.910Z,38.52
2018-02-11T08:18:45.919Z,38.53
2018-02-11T08:19:45.922Z,38.49
2018-02-11T08:20:45.968Z,38.46
2018-02-11T08:21:45.926Z,38.45
2018-02-11T08:22:45.879Z,38.47
2018-02-11T08:23:45.909Z,38.46
2018-02-11T08:24:45.904Z,38.43
2018-02-11T08:25:45.880Z,38.44
2018-02-11T08:26:45.888Z,38.45
2018-02-11T08:27:45.911Z,38.43
2018-02-11T08:28:45.884Z,38.44
2018-02-11T08:29:54.592Z,38.37
2018-02-11T08:30:45.918Z,38.43
2018-02-11T08:31:45.927Z,38.5
2018-02-11T08:32:46.047Z,38.41
2018-02-11T08:33:45.890Z,38.45
2018-02-11T08:34:45.872Z,38.4
2018-02-11T08:35:45.895Z,38.46
2018-02-11T08:36:45.901Z,38.43
2018-02-11T08:37:45.906Z,38.4
2018-02-11T08:38:45.854Z,38.47
2018-02-11T08:39:45.870Z,38.4
2018-02-11T08:40:45.870Z,37.87
2018-02-11T08:41:45.910Z,36.54
2018-02-11T08:42:45.876Z,35.63
2018-02-11T08:43:45.911Z,36.02
2018-02-11T08:44:45.897Z,35.46
2018-02-11T08:45:45.898Z,34.92
2018-02-11T08:46:45.915Z,34.95
2018-02-11T08:47:45.932Z,34.97
2018-02-11T08:48:45.922Z,35.11
2018-02-11T08:49:45.901Z,35.86
2018-02-11T08:50:45.898Z,36.02
2018-02-11T08:51:45.917Z,36.16
2018-02-11T08:52:45.904Z,36.41
2018-02-11T08:53:45.897Z,36.59
2018-02-11T08:54:45.893Z,36.67
2018-02-11T08:55:45.907Z,36.79
2018-02-11T08:56:45.897Z,36.88
2018-02-11T08:57:45.912Z,36.99
2018-02-11T08:58:45.892Z,37.06
2018-02-11T08:59:45.903Z,37.1
2018-02-11T09:00:46.190Z,37.12
2018-02-11T09:01:45.906Z,37.21
2018-02-11T09:02:45.899Z,37.17
2018-02-11T09:03:45.907Z,37.18
2018-02-11T09:04:45.956Z,37.25
2018-02-11T09:05:45.927Z,37.32
2018-02-11T09:06:45.913Z,37.25
2018-02-11T09:07:45.971Z,37.39
2018-02-11T09:08:45.866Z,37.28
2018-02-11T09:09:46.078Z,37.26
2018-02-11T09:10:45.962Z,37.35
2018-02-11T09:12:45.940Z,37.36
2018-02-11T09:13:54.718Z,37.39
2018-02-11T09:14:45.921Z,37.39
2018-02-11T09:15:45.866Z,37.41
2018-02-11T09:16:45.913Z,37.45
2018-02-11T09:17:45.895Z,37.43
2018-02-11T09:18:45.857Z,37.38
2018-02-11T09:19:45.922Z,37.51
2018-02-11T09:20:45.911Z,37.51
2018-02-11T09:21:45.855Z,37.55
2018-02-11T09:22:46.006Z,37.53
2018-02-11T09:23:45.896Z,37.49
2018-02-11T09:24:46.192Z,37.53
2018-02-11T09:25:45.869Z,37.5
2018-02-11T09:26:45.893Z,37.52
2018-02-11T09:27:45.889Z,37.5
2018-02-11T09:28:45.913Z,37.63
2018-02-11T09:29:45.911Z,38.09
2018-02-11T09:30:45.934Z,37.93
2018-02-11T09:31:45.879Z,38.15
2018-02-11T09:32:45.851Z,38.39
2018-02-11T09:33:45.888Z,38.26
2018-02-11T09:34:45.934Z,38.29
2018-02-11T09:35:45.899Z,38.38
2018-02-11T09:36:45.979Z,38.26
2018-02-11T09:37:45.882Z,38.38
2018-02-11T09:38:45.914Z,38.34
2018-02-11T09:39:45.996Z,38.2
2018-02-11T09:40:45.876Z,38.2
2018-02-11T09:41:45.911Z,38.27
2018-02-11T09:42:45.975Z,38.36
2018-02-11T09:43:46.002Z,38.52
2018-02-11T09:44:45.912Z,38.37
2018-02-11T09:45:45.859Z,38.35
2018-02-11T09:46:45.911Z,37.93
2018-02-11T09:47:45.949Z,37.85
2018-02-11T09:48:45.885Z,37.89
2018-02-11T09:49:45.950Z,37.79
2018-02-11T09:50:46.140Z,37.73
2018-02-11T09:51:45.961Z,37.8
2018-02-11T09:52:45.960Z,37.7
2018-02-11T09:53:45.890Z,37.73
2018-02-11T09:54:46.004Z,37.77
2018-02-11T09:55:45.894Z,37.79
2018-02-11T09:56:45.858Z,37.77
2018-02-11T09:57:54.682Z,37.73
2018-02-11T09:58:45.890Z,37.79
2018-02-11T09:59:45.912Z,37.76
2018-02-11T10:00:45.907Z,37.81
2018-02-11T10:01:45.937Z,37.79
2018-02-11T10:02:45.891Z,37.81
2018-02-11T10:03:45.910Z,37.79
2018-02-11T10:04:45.962Z,37.77
2018-02-11T10:05:45.974Z,37.78
2018-02-11T10:06:45.908Z,37.8
2018-02-11T10:07:45.946Z,38.07
2018-02-11T10:08:45.935Z,37.81
2018-02-11T10:09:45.959Z,36.31
2018-02-11T10:10:45.855Z,37.64
2018-02-11T10:11:45.948Z,37.19
2018-02-11T10:12:45.978Z,36.25
2018-02-11T10:13:45.894Z,36.07
2018-02-11T10:14:45.868Z,37
2018-02-11T10:15:45.886Z,37.09
2018-02-11T10:16:45.876Z,37.03
2018-02-11T10:17:45.852Z,37.14
2018-02-11T10:18:45.965Z,37.66
2018-02-11T10:19:45.915Z,37.39
2018-02-11T10:20:45.901Z,37.74
2018-02-11T10:21:45.918Z,37.55
2018-02-11T10:22:45.955Z,37.65
2018-02-11T10:23:45.897Z,37.52
2018-02-11T10:24:45.864Z,37.69
2018-02-11T10:25:45.835Z,37.78
2018-02-11T10:26:45.868Z,37.68
2018-02-11T10:27:45.857Z,37.77
2018-02-11T10:28:45.913Z,37.72
2018-02-11T10:29:45.911Z,37.79
2018-02-11T10:30:45.944Z,37.71
2018-02-11T10:31:45.877Z,37.8
2018-02-11T10:32:45.886Z,37.99
2018-02-11T10:33:45.966Z,37.78
2018-02-11T10:34:45.845Z,37.79
2018-02-11T10:35:45.836Z,37.88
2018-02-11T10:36:45.942Z,37.86
2018-02-11T10:37:45.954Z,38.93
2018-02-11T10:38:45.880Z,38.82
2018-02-11T10:39:45.883Z,38.3
2018-02-11T10:40:45.937Z,38.35
2018-02-11T10:41:45.889Z,38.68
2018-02-11T10:42:45.873Z,38.68
2018-02-11T10:43:45.861Z,38.63
2018-02-11T10:44:45.852Z,38.55
2018-02-11T10:45:45.907Z,38.66
2018-02-11T10:46:45.916Z,38.62
2018-02-11T10:47:45.873Z,38.72
2018-02-11T10:48:45.868Z,38.79
2018-02-11T10:49:45.899Z,38.88
2018-02-11T10:50:45.866Z,38.88
2018-02-11T10:51:45.987Z,38.84
2018-02-11T10:52:45.826Z,38.92
2018-02-11T10:53:45.827Z,38.75
2018-02-11T10:54:45.967Z,38.91
2018-02-11T10:55:45.873Z,38.74
2018-02-11T10:56:45.842Z,38.66
2018-02-11T10:57:45.913Z,38.67
2018-02-11T10:58:45.854Z,38.72
2018-02-11T10:59:45.860Z,38.3
2018-02-11T11:00:45.926Z,38.35
2018-02-11T11:01:45.824Z,38.31
2018-02-11T11:02:45.834Z,38.5
2018-02-11T11:03:45.898Z,38.6
2018-02-11T11:04:45.846Z,38.91
2018-02-11T11:05:45.829Z,38.82
2018-02-11T11:06:45.909Z,38.84
2018-02-11T11:07:45.827Z,39.05
2018-02-11T11:08:45.857Z,38.69
2018-02-11T11:09:45.853Z,38.79
2018-02-11T11:10:45.865Z,38.7
2018-02-11T11:11:45.866Z,38.79
2018-02-11T11:12:45.878Z,38.34
2018-02-11T11:13:45.839Z,38.72
2018-02-11T11:15:46.355Z,38.84
2018-02-11T11:16:45.857Z,39.16
2018-02-11T11:17:45.844Z,38.43
2018-02-11T11:18:45.879Z,38.46
2018-02-11T11:19:45.842Z,37.73
2018-02-11T11:20:45.888Z,37.03
2018-02-11T11:21:45.867Z,37.62
2018-02-11T11:22:45.823Z,38.29
2018-02-11T11:23:45.932Z,38.48
2018-02-11T11:24:45.923Z,38.71
2018-02-11T11:25:45.844Z,38.73
2018-02-11T11:26:45.830Z,37.95
2018-02-11T11:27:45.861Z,38.31
2018-02-11T11:28:45.829Z,38.43
2018-02-11T11:29:45.850Z,38.56
2018-02-11T11:30:45.916Z,38.61
2018-02-11T11:31:45.788Z,38.69
2018-02-11T11:32:45.792Z,38.84
2018-02-11T11:33:45.789Z,39.22
2018-02-11T11:34:45.809Z,38.31
2018-02-11T11:35:45.785Z,38.79
2018-02-11T11:36:45.864Z,38.45
2018-02-11T11:37:45.797Z,38.66
2018-02-11T11:38:45.860Z,39.05
2018-02-11T11:39:45.988Z,39.17
2018-02-11T11:40:45.848Z,39.24
2018-02-11T11:41:45.779Z,39.13
2018-02-11T11:42:45.945Z,39.08
2018-02-11T11:43:45.848Z,38.56
2018-02-11T11:44:45.824Z,39.08
2018-02-11T11:45:45.920Z,38.92
2018-02-11T11:46:45.851Z,39.31
2018-02-11T11:47:45.931Z,39.21
2018-02-11T11:48:45.853Z,39.44
2018-02-11T11:49:45.870Z,39.25
2018-02-11T11:50:45.865Z,39.34
2018-02-11T11:51:45.904Z,39.04
2018-02-11T11:52:51.736Z,39.03
2018-02-11T11:53:45.812Z,38.82
2018-02-11T11:54:45.824Z,38.57
2018-02-11T11:55:45.809Z,38.61
2018-02-11T11:56:45.837Z,38.62
2018-02-11T11:57:45.906Z,38.86
2018-02-11T11:58:45.812Z,38.86
2018-02-11T11:59:45.838Z,39.05
2018-02-11T12:00:45.880Z,38.94
2018-02-11T12:01:45.802Z,38.65
2018-02-11T12:02:45.804Z,38.48
2018-02-11T12:03:45.883Z,38.58
2018-02-11T12:04:45.828Z,38.57
2018-02-11T12:05:45.835Z,38.76
2018-02-11T12:06:45.809Z,38.45
2018-02-11T12:07:45.837Z,38.54
2018-02-11T12:08:45.815Z,38.62
2018-02-11T12:09:45.915Z,38.58
2018-02-11T12:10:45.853Z,38.57
2018-02-11T12:11:45.847Z,38.33
2018-02-11T12:12:45.967Z,38.52
2018-02-11T12:13:45.828Z,38.8
2018-02-11T12:14:45.803Z,38.98
2018-02-11T12:15:45.899Z,39.12
2018-02-11T12:16:45.829Z,38.93
2018-02-11T12:17:45.815Z,38.82
2018-02-11T12:18:45.902Z,38.9
2018-02-11T12:19:45.829Z,38.88
2018-02-11T12:20:45.823Z,38.74
2018-02-11T12:21:45.889Z,38.84
2018-02-11T12:22:45.829Z,38.92
2018-02-11T12:23:45.820Z,38.99
2018-02-11T12:24:45.826Z,39.05
2018-02-11T12:25:45.808Z,38.99
2018-02-11T12:26:45.819Z,38.92
2018-02-11T12:27:45.834Z,38.76
2018-02-11T12:28:45.822Z,38.67
2018-02-11T12:29:45.805Z,38.87
2018-02-11T12:30:45.797Z,38.75
2018-02-11T12:31:45.794Z,38.73
2018-02-11T12:32:45.823Z,38.67
2018-02-11T12:33:45.803Z,38.88
2018-02-11T12:34:45.839Z,38.85
2018-02-11T12:35:45.821Z,38.96
2018-02-11T12:36:45.805Z,38.94
2018-02-11T12:37:45.811Z,38.8
2018-02-11T12:38:45.808Z,38.82
2018-02-11T12:39:45.814Z,38.86
2018-02-11T12:40:45.829Z,39.01
2018-02-11T12:41:45.796Z,38.82
2018-02-11T12:42:45.872Z,38.86
2018-02-11T12:43:45.840Z,39.18
2018-02-11T12:44:45.840Z,38.9
2018-02-11T12:45:45.955Z,38.86
2018-02-11T12:46:45.838Z,38.77
2018-02-11T12:47:45.813Z,38.77
2018-02-11T12:48:45.799Z,38.75
2018-02-11T12:49:45.789Z,38.81
2018-02-11T12:50:45.797Z,38.78
2018-02-11T12:51:45.820Z,38.85
2018-02-11T12:52:45.834Z,38.56
2018-02-11T12:53:45.834Z,38.53
2018-02-11T12:54:45.817Z,38.73
2018-02-11T12:55:45.811Z,38.61
2018-02-11T12:56:45.909Z,38.35
2018-02-11T12:57:45.844Z,38.64
2018-02-11T12:58:45.848Z,38.43
2018-02-11T12:59:45.854Z,38.37